Chatham, MA (02633)

6:58 AM EDT on September 20, 2014 (GMT -0400)
Oyster Pond and River | Change Station
CLOSE
Current Station
Personal Weather Station
Location: Chatham, MA
Elevation: 69 ft
Nearby Weather Stations

Elev 69 ft 41.68 °N, 69.97 °W | Updated 4 seconds ago

Scattered Clouds
Scattered Clouds
54.2 °F
Feels Like 54.2 °F
N
1.0
Wind Variable Wind from SSE
Gusts 4.0 mph

Today
High -- | Low -- °F
--% Chance of Precip.
Yesterday
High -- | Low -- °F
Precip. -- in
6:25 AM 6:40 PM
Waning Crescent, 13% visible
Pressure 30.40 in
Visibility 10.0 miles
Clouds Scattered Clouds 2700 ft
Dew Point 38 °F
Humidity 54%
Rainfall 0.00 in
Snow Depth Not available.
UV 0 out of 12
Pollen 3.40 out of 12
Air Quality Not available.
Flu Activity Not available.
METAR KCQX 201052Z AUTO 16003KT 10SM SCT027 11/07 A3040 RMK AO2 SLP294 T01110067

More Conditions Fewer Conditions

Pressure 30.40 in
Visibility 10.0 miles
Clouds Scattered Clouds 2700 ft
Dew Point 38 °F
Humidity 54%
Rainfall 0.00 in
Snow Depth Not available.
UV 0 out of 12
Pollen 3.40 out of 12
Air Quality Not available.
Flu Activity Not available.
METAR KCQX 201052Z AUTO 16003KT 10SM SCT027 11/07 A3040 RMK AO2 SLP294 T01110067

More Conditions Fewer Conditions

10-Day Weather Forecast

Almanac

Astronomy

Sep. 20, 2014 Rise Set
Actual Time 6:25 AM EDT 6:40 PM EDT
Civil Twilight 5:57 AM EDT 7:08 PM EDT
Nautical Twilight 5:24 AM EDT 7:40 PM EDT
Astronomical Twilight 4:51 AM EDT 8:14 PM EDT
Moon 2:59 AM EDT 4:44 PM EDT
Length of Visible Light 13h 10m
Length of Day
12h 15m
Tomorrow will be 2m 46s shorter.
Waning Crescent, 13% of the Moon is Illuminated
Today
Waning Crescent
Sep 24
New
Oct 1
First Quarter
Oct 8
Full
Oct 15
Last Quarter

Today's Extremes

State Highs State Lows

Community

WunderPhotos

Upload Photos

1,754,827 photos uploaded!

Nearby

Air Quality

  Air Quality AQ Index Pollutant
Yesterday Good
OZONE
Saturday Good
PM2.5
Saturday Good
OZONE

Snow Depth

Station Depth Elevation
No new snow has been reported.

Earthquake Activity

City Distance Mag. Time & Date
No recent earthquake activity has been reported nearby.
Minimum magnitude displayed is 2.5.

Coastal Water Temperatures

Place Temperature
Nantucket Island, MA 64.9 °F
Woods Hole, MA 68.0 °F
Fall River, MA 69.1 °F
Boston, MA 62.1 °F

Nearby Weather Stations